Terminal Aerodrome Forecast
Issued by NWS Lake Charles, LA

Home | Current Version | Previous Version | Text Only | Print | Product List | Glossary On
Versions: 1 2 3 4 5 6 7 8 9 10 11 12 13 14 15 16 17 18
000
FTUS44 KLCH 232326
TAFLFT
TAF
KLFT 232326Z 2400/2424 18004KT P6SM FEW050 BKN120 BKN250
     FM240300 VRB03KT P6SM FEW035 SCT250
     FM240700 00000KT 5SM BR SCT002
      TEMPO 2408/2412 2SM BR BKN002
     FM241500 28004KT P6SM VCSH SCT025
     FM241800 18006KT P6SM VCTS BKN035CB BKN100
      TEMPO 2418/2422 20008KT 2SM TSRA SCT030 BKN050CB OVC100=

USA.gov is the U.S. government's official web portal to all federal, state and local government web resources and services.